Time;durP1;ratioP1;P1;durP2;ratioP2;P2;SDS_P1;SDS_P2;PMS_P1;PMS_P2;Temp;Humidity;BMP_temperature;BMP_pressure;BME280_temperature;BME280_humidity;BME280_pressure;Samples;Min_cycle;Max_cycle;Signal;HPM_P1;HPM_P2
2022/01/15 00:02:11;;;;;;;12.38;8.70;;;1.40;99.90;;;;;;5019965;28;20089;-59
2022/01/15 00:04:38;;;;;;;12.20;8.90;;;1.40;99.90;;;;;;5019748;28;20065;-59
2022/01/15 00:07:06;;;;;;;11.50;8.23;;;1.30;99.90;;;;;;5019893;28;20049;-59
2022/01/15 00:09:33;;;;;;;11.57;8.05;;;1.30;99.90;;;;;;5020345;28;20140;-58
2022/01/15 00:11:59;;;;;;;11.68;8.57;;;1.30;99.90;;;;;;5020901;28;20081;-59
2022/01/15 00:14:32;;;;;;;10.82;8.13;;;1.20;99.90;;;;;;5020203;28;20248;-59
2022/01/15 00:17:46;;;;;;;11.50;9.35;;;1.30;99.90;;;;;;5020247;28;20049;-59
2022/01/15 00:19:53;;;;;;;11.07;8.48;;;1.20;99.90;;;;;;5013151;28;20964;-59
2022/01/15 00:22:19;;;;;;;9.48;7.13;;;1.20;99.90;;;;;;5018914;28;20129;-59
2022/01/15 00:24:46;;;;;;;13.90;9.15;;;1.10;99.90;;;;;;5020435;28;20104;-60
2022/01/15 00:27:13;;;;;;;12.27;8.35;;;1.10;99.90;;;;;;5020977;28;20183;-59
2022/01/15 00:29:40;;;;;;;14.25;9.05;;;1.10;99.90;;;;;;5021082;28;20148;-59
2022/01/15 00:32:07;;;;;;;11.25;8.27;;;1.10;99.90;;;;;;5021048;28;20434;-59
2022/01/15 00:34:34;;;;;;;12.98;8.75;;;1.10;99.90;;;;;;5020907;28;20100;-60
2022/01/15 00:37:02;;;;;;;9.95;7.35;;;1.10;99.90;;;;;;5019281;28;20053;-59
2022/01/15 00:39:28;;;;;;;12.60;8.32;;;1.10;99.90;;;;;;5024636;28;20136;-59
2022/01/15 00:41:55;;;;;;;14.05;8.00;;;1.10;99.90;;;;;;5025269;28;20069;-59
2022/01/15 00:44:22;;;;;;;11.02;7.72;;;1.10;99.90;;;;;;5024724;28;21620;-60
2022/01/15 00:46:49;;;;;;;10.80;8.65;;;1.00;99.90;;;;;;5024004;28;20124;-59
2022/01/15 00:49:16;;;;;;;13.10;9.02;;;1.00;99.90;;;;;;5025010;28;20676;-58
2022/01/15 00:51:42;;;;;;;11.30;9.15;;;1.00;99.90;;;;;;5024369;28;20084;-59
2022/01/15 00:54:09;;;;;;;12.52;8.82;;;1.10;99.90;;;;;;5024446;28;20147;-59
2022/01/15 00:56:36;;;;;;;12.77;9.00;;;1.10;99.90;;;;;;5024084;28;20141;-59
2022/01/15 00:59:02;;;;;;;13.00;8.50;;;1.00;99.90;;;;;;5025336;28;20057;-59
2022/01/15 01:01:29;;;;;;;11.13;8.13;;;1.00;99.90;;;;;;5024103;28;20161;-59
2022/01/15 01:03:56;;;;;;;13.95;8.70;;;1.00;99.90;;;;;;5024160;28;20805;-59
2022/01/15 01:06:23;;;;;;;14.48;8.45;;;1.00;99.90;;;;;;5023171;28;20061;-61
2022/01/15 01:08:50;;;;;;;10.13;7.97;;;1.00;99.90;;;;;;5023772;28;20169;-59
2022/01/15 01:11:23;;;;;;;11.18;8.63;;;1.00;99.90;;;;;;5024663;28;20528;-59
2022/01/15 01:24:41;;;;;;;13.00;7.47;;;0.90;99.90;;;;;;5023048;28;20107;-60
2022/01/15 01:27:14;;;;;;;11.15;8.05;;;0.90;99.90;;;;;;5024148;28;20053;-59
2022/01/15 01:30:28;;;;;;;11.30;7.70;;;0.90;99.90;;;;;;5024048;28;20126;-59
2022/01/15 01:32:52;;;;;;;9.60;7.80;;;0.80;99.90;;;;;;5018015;28;20564;-59
2022/01/15 01:35:33;;;;;;;9.82;7.38;;;0.80;99.90;;;;;;5018392;28;20136;-59
2022/01/15 01:38:10;;;;;;;10.23;7.82;;;0.80;99.90;;;;;;5023740;28;20137;-58
2022/01/15 01:40:40;;;;;;;9.75;7.18;;;0.80;99.90;;;;;;5021128;28;20114;-58
2022/01/15 01:45:47;;;;;;;10.82;8.20;;;0.70;99.90;;;;;;5019497;28;20480;-59
2022/01/15 01:48:14;;;;;;;10.05;7.78;;;0.70;99.90;;;;;;5021129;28;20045;-58
2022/01/15 01:50:41;;;;;;;10.88;7.50;;;0.80;99.90;;;;;;5021226;28;20164;-59
2022/01/15 01:53:09;;;;;;;8.10;6.82;;;0.80;99.90;;;;;;5031762;28;20452;-58
2022/01/15 01:55:35;;;;;;;9.10;6.43;;;0.70;99.90;;;;;;5017320;28;20103;-58
2022/01/15 01:58:02;;;;;;;9.50;7.95;;;0.70;99.90;;;;;;5028602;28;20072;-58
2022/01/15 02:00:30;;;;;;;10.95;8.40;;;0.70;99.90;;;;;;5020563;28;20041;-58
2022/01/15 02:02:57;;;;;;;12.35;7.32;;;0.70;99.90;;;;;;5020594;28;20049;-58
2022/01/15 02:05:24;;;;;;;9.23;7.55;;;0.70;99.90;;;;;;5022057;28;20507;-59
2022/01/15 02:07:51;;;;;;;12.07;7.95;;;0.70;99.90;;;;;;5022918;28;20558;-59
2022/01/15 02:10:20;;;;;;;9.98;8.15;;;0.70;99.90;;;;;;5022681;28;20627;-58
2022/01/15 02:12:48;;;;;;;10.20;7.53;;;0.70;99.90;;;;;;5023224;28;20132;-58
2022/01/15 02:15:18;;;;;;;12.27;7.50;;;0.70;99.90;;;;;;5022223;28;20084;-59
2022/01/15 02:17:46;;;;;;;11.80;8.00;;;0.70;99.90;;;;;;5021949;28;20141;-59
2022/01/15 02:25:55;;;;;;;9.20;7.28;;;0.70;99.90;;;;;;5019033;28;20117;-59
2022/01/15 02:28:24;;;;;;;8.23;6.70;;;0.70;99.90;;;;;;5023229;28;20510;-59
2022/01/15 02:30:55;;;;;;;7.72;6.47;;;0.70;99.90;;;;;;5021660;28;20144;-59
2022/01/15 02:33:22;;;;;;;8.48;6.90;;;0.70;99.90;;;;;;5019287;28;20059;-59
2022/01/15 02:35:49;;;;;;;11.77;7.40;;;0.70;99.90;;;;;;5023896;28;20104;-58
2022/01/15 02:38:15;;;;;;;8.95;6.63;;;0.70;99.90;;;;;;5022375;28;20049;-58
2022/01/15 02:40:43;;;;;;;9.88;7.57;;;0.70;99.90;;;;;;5024987;28;20113;-58
2022/01/15 02:43:12;;;;;;;9.75;6.95;;;0.70;99.90;;;;;;5024197;28;20100;-58
2022/01/15 02:45:43;;;;;;;10.57;6.90;;;0.70;99.90;;;;;;5024550;28;20081;-59
2022/01/15 02:48:14;;;;;;;10.90;7.95;;;0.70;99.90;;;;;;5023552;28;20151;-59
2022/01/15 02:50:41;;;;;;;9.45;7.38;;;0.70;99.90;;;;;;5022623;28;20112;-59
2022/01/15 02:53:09;;;;;;;9.52;7.07;;;0.70;99.90;;;;;;5023765;28;20092;-58
2022/01/15 02:55:40;;;;;;;11.05;7.53;;;0.70;99.90;;;;;;5024974;28;20046;-59
2022/01/15 02:58:06;;;;;;;9.25;6.55;;;0.60;99.90;;;;;;5024630;28;20056;-59
2022/01/15 03:00:33;;;;;;;9.48;7.03;;;0.60;99.90;;;;;;5022723;28;20077;-59
2022/01/15 03:03:00;;;;;;;8.13;6.45;;;0.60;99.90;;;;;;5022546;28;20554;-59
2022/01/15 03:05:27;;;;;;;10.40;8.32;;;0.60;99.90;;;;;;5022354;28;20049;-59
2022/01/15 03:07:53;;;;;;;10.30;7.55;;;0.60;99.90;;;;;;5022592;28;20080;-59
2022/01/15 03:10:20;;;;;;;11.07;7.25;;;0.60;99.90;;;;;;5023728;28;20607;-59
2022/01/15 03:12:47;;;;;;;11.02;6.82;;;0.50;99.90;;;;;;5010367;28;20102;-59
2022/01/15 03:15:19;;;;;;;11.48;8.02;;;0.60;99.90;;;;;;5009306;28;20081;-59
2022/01/15 03:17:49;;;;;;;8.57;7.13;;;0.60;99.90;;;;;;5004679;28;20132;-59
2022/01/15 03:20:17;;;;;;;10.38;7.57;;;0.60;99.90;;;;;;5007456;28;20132;-58
2022/01/15 03:22:44;;;;;;;8.68;6.45;;;0.60;99.90;;;;;;5023289;28;20740;-59
2022/01/15 03:25:11;;;;;;;9.43;7.03;;;0.60;99.90;;;;;;5022123;28;20132;-60
2022/01/15 03:27:38;;;;;;;9.45;6.75;;;0.60;99.90;;;;;;5024273;28;20485;-59
2022/01/15 03:30:06;;;;;;;8.70;6.25;;;0.60;99.90;;;;;;5023065;28;20073;-59
2022/01/15 03:32:33;;;;;;;8.45;6.78;;;0.70;99.90;;;;;;5018228;28;20208;-59
2022/01/15 03:34:59;;;;;;;8.95;6.75;;;0.60;99.90;;;;;;5021563;28;20088;-59
2022/01/15 03:37:26;;;;;;;8.70;6.53;;;0.70;99.90;;;;;;5023131;28;20140;-59
2022/01/15 03:39:53;;;;;;;8.43;5.70;;;0.70;99.90;;;;;;5022474;28;20159;-59
2022/01/15 03:42:19;;;;;;;8.23;6.05;;;0.70;99.90;;;;;;5023354;28;20045;-59
2022/01/15 03:44:48;;;;;;;9.32;7.05;;;0.70;99.90;;;;;;5012751;28;20725;-59
2022/01/15 03:47:15;;;;;;;8.05;6.25;;;0.80;99.90;;;;;;5011358;28;20087;-60
2022/01/15 03:49:42;;;;;;;11.20;6.63;;;0.80;99.90;;;;;;5014977;28;20279;-58
2022/01/15 03:52:09;;;;;;;7.43;6.18;;;0.90;99.90;;;;;;5003127;28;20469;-59
2022/01/15 03:54:36;;;;;;;7.53;6.28;;;0.90;99.90;;;;;;5021462;28;20161;-59
2022/01/15 03:57:04;;;;;;;7.20;5.95;;;0.90;99.90;;;;;;5020108;28;20046;-59
2022/01/15 03:59:30;;;;;;;7.00;5.90;;;1.00;99.90;;;;;;5022707;28;20077;-59
2022/01/15 04:01:57;;;;;;;8.02;6.32;;;1.00;99.90;;;;;;5022833;28;20204;-59
2022/01/15 04:04:24;;;;;;;8.38;5.68;;;1.10;99.90;;;;;;5021818;28;20515;-59
2022/01/15 04:06:51;;;;;;;7.75;5.63;;;1.10;99.90;;;;;;5014431;28;20065;-59
2022/01/15 04:09:18;;;;;;;6.80;5.53;;;1.20;99.90;;;;;;5004269;28;20130;-59
2022/01/15 04:11:45;;;;;;;7.47;5.57;;;1.30;99.90;;;;;;5003056;28;20093;-59
2022/01/15 04:14:12;;;;;;;7.72;6.32;;;1.30;99.90;;;;;;5024348;28;20157;-59
2022/01/15 04:16:39;;;;;;;6.35;5.40;;;1.30;99.90;;;;;;5026109;28;20049;-59
2022/01/15 04:19:07;;;;;;;7.45;5.50;;;1.30;99.90;;;;;;5027619;28;20049;-59
2022/01/15 04:21:34;;;;;;;6.97;5.60;;;1.40;99.90;;;;;;5016350;28;20053;-59
2022/01/15 04:24:01;;;;;;;7.93;5.60;;;1.40;99.90;;;;;;5010274;28;20196;-59
2022/01/15 04:26:28;;;;;;;6.43;5.15;;;1.40;99.90;;;;;;5011684;28;20132;-59
2022/01/15 04:29:01;;;;;;;6.22;4.65;;;1.50;99.90;;;;;;5026821;28;20428;-60
2022/01/15 04:31:35;;;;;;;7.22;5.13;;;1.50;99.90;;;;;;5026118;28;20761;-59
2022/01/15 04:34:02;;;;;;;;;;;1.50;99.90;;;;;;5027454;28;20046;-59
2022/01/15 04:36:29;;;;;;;6.13;4.45;;;1.60;99.90;;;;;;5026371;28;20028;-59
2022/01/15 04:38:55;;;;;;;5.80;4.85;;;1.60;99.90;;;;;;5024909;28;20049;-59
2022/01/15 04:41:22;;;;;;;6.30;5.10;;;1.70;99.90;;;;;;5010571;28;20056;-59
2022/01/15 04:43:49;;;;;;;6.82;5.65;;;1.70;99.90;;;;;;5019761;28;20141;-58
2022/01/15 04:46:16;;;;;;;7.03;5.53;;;1.80;99.90;;;;;;5025820;28;20570;-59
2022/01/15 04:48:42;;;;;;;7.53;5.60;;;1.80;99.90;;;;;;5026904;28;20404;-59
2022/01/15 04:51:10;;;;;;;6.80;4.95;;;1.80;99.90;;;;;;5026759;28;20398;-59
2022/01/15 04:53:37;;;;;;;6.70;5.40;;;1.90;99.90;;;;;;5025951;28;20128;-59
2022/01/15 04:56:04;;;;;;;8.40;6.20;;;1.90;99.90;;;;;;5025811;28;20128;-59
2022/01/15 04:58:31;;;;;;;7.88;5.78;;;1.80;99.90;;;;;;5014471;28;20136;-59
2022/01/15 05:00:57;;;;;;;7.68;5.85;;;1.80;99.90;;;;;;5012435;28;20567;-59
2022/01/15 05:03:24;;;;;;;7.82;5.90;;;1.70;99.90;;;;;;5025141;28;20053;-59
2022/01/15 05:05:51;;;;;;;8.55;6.50;;;1.70;99.90;;;;;;5026023;28;20050;-59
2022/01/15 05:08:18;;;;;;;7.72;6.38;;;1.60;99.90;;;;;;5023563;28;20049;-58
2022/01/15 05:10:47;;;;;;;9.60;6.32;;;1.70;99.90;;;;;;5019928;28;20057;-58
2022/01/15 05:13:14;;;;;;;7.47;6.05;;;1.80;99.90;;;;;;5021134;28;20549;-58
2022/01/15 05:15:44;;;;;;;9.50;6.50;;;1.80;99.90;;;;;;5026328;28;20134;-58
2022/01/15 05:18:11;;;;;;;9.68;7.30;;;1.90;99.90;;;;;;5025365;28;20125;-59
2022/01/15 05:20:43;;;;;;;7.88;6.50;;;1.80;99.90;;;;;;5026207;28;20134;-59
2022/01/15 05:23:10;;;;;;;8.57;6.75;;;1.80;99.90;;;;;;5018559;28;20089;-59
2022/01/15 05:25:37;;;;;;;9.63;7.22;;;1.80;99.90;;;;;;5025671;28;20397;-59
2022/01/15 05:28:04;;;;;;;7.93;6.20;;;1.80;99.90;;;;;;5024423;28;20053;-59
2022/01/15 05:30:32;;;;;;;9.95;7.40;;;1.80;99.90;;;;;;5024002;28;20081;-59
2022/01/15 05:32:58;;;;;;;8.82;6.47;;;1.80;99.90;;;;;;5023689;28;20253;-59
2022/01/15 05:35:27;;;;;;;10.15;7.50;;;1.80;99.90;;;;;;5015175;28;20081;-59
2022/01/15 05:37:57;;;;;;;8.75;6.60;;;1.80;99.90;;;;;;5025343;28;20085;-59
2022/01/15 05:40:24;;;;;;;8.45;6.53;;;1.80;99.90;;;;;;5025065;28;20553;-58
2022/01/15 05:42:52;;;;;;;10.23;7.22;;;1.80;99.90;;;;;;5024205;28;20133;-58
2022/01/15 05:45:21;;;;;;;8.40;6.93;;;1.80;99.90;;;;;;5024885;28;20124;-59
2022/01/15 05:47:48;;;;;;;9.55;7.30;;;1.80;99.90;;;;;;5023781;28;20068;-59
2022/01/15 05:50:15;;;;;;;9.73;6.95;;;1.90;99.90;;;;;;5023315;28;20085;-58
2022/01/15 05:52:41;;;;;;;9.02;6.57;;;1.90;99.90;;;;;;5024871;28;20105;-58
2022/01/15 05:55:08;;;;;;;10.40;7.65;;;2.00;99.90;;;;;;5007274;28;20078;-59
2022/01/15 05:57:35;;;;;;;10.77;7.13;;;2.00;99.90;;;;;;5025111;28;20088;-58
2022/01/15 06:00:04;;;;;;;8.93;6.78;;;2.10;99.90;;;;;;5024955;28;20117;-59
2022/01/15 06:02:31;;;;;;;10.13;7.38;;;2.10;99.90;;;;;;5022387;28;20084;-59
2022/01/15 06:04:57;;;;;;;10.80;7.78;;;2.10;99.90;;;;;;5009942;28;20081;-59
2022/01/15 06:07:24;;;;;;;10.23;6.95;;;2.10;99.90;;;;;;5021922;28;20103;-58
2022/01/15 06:09:51;;;;;;;10.88;7.45;;;2.10;99.90;;;;;;5022552;28;20127;-59
2022/01/15 06:12:18;;;;;;;9.23;6.65;;;2.20;99.90;;;;;;5023021;28;20556;-59
2022/01/15 06:14:45;;;;;;;10.30;7.03;;;2.20;99.90;;;;;;5022552;28;20141;-59
2022/01/15 06:17:12;;;;;;;10.68;6.82;;;2.20;99.90;;;;;;5022354;28;20045;-59
2022/01/15 06:19:38;;;;;;;9.70;6.78;;;2.30;99.90;;;;;;5023281;28;20457;-59
2022/01/15 06:22:05;;;;;;;10.32;6.88;;;2.30;99.90;;;;;;5022750;28;20232;-59
2022/01/15 06:24:32;;;;;;;9.18;7.20;;;2.30;99.90;;;;;;5022451;28;20088;-57
2022/01/15 06:26:59;;;;;;;9.30;7.20;;;2.40;99.90;;;;;;5022480;28;20568;-59
2022/01/15 06:29:25;;;;;;;12.48;7.30;;;2.40;99.90;;;;;;5023298;28;20132;-59
2022/01/15 06:31:54;;;;;;;12.55;7.43;;;2.50;99.90;;;;;;5021482;28;20196;-60
2022/01/15 06:34:20;;;;;;;9.80;6.28;;;2.60;99.90;;;;;;5017779;28;20095;-59
2022/01/15 06:36:47;;;;;;;11.80;7.10;;;2.70;99.90;;;;;;5019683;28;20144;-59
2022/01/15 06:39:14;;;;;;;9.85;7.20;;;2.70;99.90;;;;;;5022146;28;20126;-59
2022/01/15 06:41:41;;;;;;;8.07;5.93;;;2.80;99.90;;;;;;5015159;28;20085;-59
2022/01/15 06:44:07;;;;;;;10.70;7.00;;;2.90;99.90;;;;;;5017481;28;20485;-58
2022/01/15 06:46:34;;;;;;;9.70;5.88;;;2.90;99.90;;;;;;5012136;28;20145;-59
2022/01/15 06:49:01;;;;;;;9.00;6.10;;;2.90;99.90;;;;;;5017763;28;20414;-58
2022/01/15 06:51:28;;;;;;;10.82;7.25;;;3.00;99.90;;;;;;5004901;28;20046;-58
2022/01/15 06:53:55;;;;;;;9.38;6.82;;;3.00;99.90;;;;;;5012703;28;20124;-58
2022/01/15 06:56:21;;;;;;;10.70;6.72;;;3.10;99.90;;;;;;5015071;28;20073;-59
2022/01/15 06:58:48;;;;;;;9.88;6.47;;;3.10;99.90;;;;;;5021442;28;20129;-58
2022/01/15 07:01:15;;;;;;;10.27;6.63;;;3.10;99.90;;;;;;5021617;28;20125;-59
2022/01/15 07:03:42;;;;;;;10.07;6.90;;;3.20;99.90;;;;;;5020835;28;20067;-59
2022/01/15 07:06:08;;;;;;;11.70;7.63;;;3.30;99.90;;;;;;5022117;28;20106;-59
2022/01/15 07:08:35;;;;;;;11.23;7.10;;;3.30;99.90;;;;;;5019364;28;20129;-58
2022/01/15 07:11:02;;;;;;;10.15;6.80;;;3.30;99.90;;;;;;5022070;28;20081;-61
2022/01/15 07:13:30;;;;;;;10.10;6.65;;;3.40;99.90;;;;;;5021642;28;20045;-59
2022/01/15 07:15:56;;;;;;;8.90;6.82;;;3.40;99.90;;;;;;5016738;28;20103;-58
2022/01/15 07:18:23;;;;;;;10.23;7.20;;;3.50;99.90;;;;;;5020475;28;20992;-59
2022/01/15 07:20:51;;;;;;;12.23;7.85;;;3.50;99.90;;;;;;5016114;28;20129;-59
2022/01/15 07:23:18;;;;;;;10.95;7.30;;;3.60;99.90;;;;;;5019686;28;20053;-59
2022/01/15 07:25:45;;;;;;;13.40;7.68;;;3.60;99.90;;;;;;5021056;28;20089;-59
2022/01/15 07:28:12;;;;;;;11.45;8.48;;;3.70;99.90;;;;;;5018645;28;20115;-58
2022/01/15 07:30:39;;;;;;;12.25;8.13;;;3.70;99.90;;;;;;5014196;28;20092;-59
2022/01/15 07:33:05;;;;;;;11.82;7.97;;;3.70;99.90;;;;;;5017420;28;20144;-59
2022/01/15 07:35:32;;;;;;;10.63;7.97;;;3.70;99.90;;;;;;5013388;28;20100;-58
2022/01/15 07:37:59;;;;;;;11.43;8.68;;;3.70;99.90;;;;;;5011299;28;20593;-60
2022/01/15 07:40:30;;;;;;;10.05;7.65;;;3.80;99.90;;;;;;5012954;28;20053;-58
2022/01/15 07:42:57;;;;;;;11.05;8.23;;;3.80;99.90;;;;;;5020788;28;20140;-59
2022/01/15 07:45:24;;;;;;;11.73;8.65;;;3.80;99.90;;;;;;5020783;28;20140;-59
2022/01/15 07:47:50;;;;;;;12.93;9.00;;;3.80;99.90;;;;;;5018552;28;20140;-59
2022/01/15 07:50:23;;;;;;;11.52;8.88;;;3.80;99.90;;;;;;5041262;28;20103;-59
2022/01/15 07:52:54;;;;;;;8.30;6.03;;;3.90;99.90;;;;;;5038325;28;20067;-58
2022/01/15 07:55:21;;;;;;;11.93;8.50;;;3.90;99.90;;;;;;5002390;28;20132;-59
2022/01/15 07:58:01;;;;;;;9.27;7.38;;;3.90;99.90;;;;;;5030916;28;20064;-58
2022/01/15 08:00:28;;;;;;;11.90;8.75;;;3.90;99.90;;;;;;5007315;28;20137;-58
2022/01/15 08:02:56;;;;;;;11.00;8.32;;;3.90;99.90;;;;;;5009049;28;20054;-58
2022/01/15 08:05:23;;;;;;;11.93;8.35;;;4.00;99.90;;;;;;5009471;28;20061;-58
2022/01/15 08:07:50;;;;;;;11.68;8.63;;;4.00;99.90;;;;;;5006019;28;20038;-59
2022/01/15 08:10:16;;;;;;;12.05;8.25;;;4.00;99.90;;;;;;5005895;28;20074;-58
2022/01/15 08:12:48;;;;;;;13.55;9.52;;;4.00;99.90;;;;;;5013012;28;20640;-58
2022/01/15 08:15:16;;;;;;;12.13;7.97;;;4.10;99.90;;;;;;5009619;28;20061;-58
2022/01/15 08:17:42;;;;;;;13.45;10.25;;;4.10;99.90;;;;;;5010835;28;20073;-59
2022/01/15 08:20:10;;;;;;;14.05;10.85;;;4.10;99.90;;;;;;5008493;28;20077;-59
2022/01/15 08:22:38;;;;;;;13.45;10.18;;;4.10;99.90;;;;;;5011320;28;20050;-58
2022/01/15 08:25:06;;;;;;;13.77;10.15;;;4.10;99.90;;;;;;5007962;28;20108;-59
2022/01/15 08:27:32;;;;;;;11.88;8.98;;;4.10;99.90;;;;;;5011834;28;20418;-60
2022/01/15 08:29:59;;;;;;;12.98;9.20;;;4.10;99.90;;;;;;5013725;28;20572;-59
2022/01/15 08:32:26;;;;;;;13.88;9.95;;;4.00;99.90;;;;;;5006101;28;20107;-59
2022/01/15 08:34:53;;;;;;;13.07;9.52;;;4.00;99.90;;;;;;5009618;28;20095;-59
2022/01/15 08:37:19;;;;;;;11.40;8.70;;;4.00;99.90;;;;;;5007862;28;20053;-59
2022/01/15 08:39:46;;;;;;;12.40;9.00;;;4.00;99.90;;;;;;5008265;28;20129;-59
2022/01/15 08:42:13;;;;;;;11.60;8.43;;;4.00;99.90;;;;;;5007903;28;20685;-59
2022/01/15 08:44:42;;;;;;;14.05;9.13;;;4.10;99.90;;;;;;5009657;28;20128;-59
2022/01/15 08:47:09;;;;;;;13.35;9.27;;;4.20;99.90;;;;;;5008385;28;20460;-59
2022/01/15 08:49:36;;;;;;;12.05;8.60;;;4.20;99.90;;;;;;5009450;28;20157;-60
2022/01/15 08:52:04;;;;;;;14.05;9.25;;;4.20;99.90;;;;;;5010741;28;20198;-59
2022/01/15 08:54:30;;;;;;;12.07;8.50;;;4.30;99.90;;;;;;5004529;28;20085;-59
2022/01/15 08:56:57;;;;;;;12.98;9.10;;;4.30;99.90;;;;;;5003506;28;20060;-60
2022/01/15 08:59:26;;;;;;;14.35;9.43;;;4.30;99.90;;;;;;5015424;28;20081;-59
2022/01/15 09:01:57;;;;;;;11.70;7.88;;;4.40;99.90;;;;;;5011039;28;20633;-59
2022/01/15 09:04:24;;;;;;;10.60;7.72;;;4.40;99.90;;;;;;5014177;28;20175;-59
2022/01/15 09:06:51;;;;;;;11.43;8.60;;;4.50;99.90;;;;;;5012471;28;20306;-59
2022/01/15 09:09:18;;;;;;;11.07;8.43;;;4.50;99.90;;;;;;5013025;28;20125;-60
2022/01/15 09:11:45;;;;;;;13.32;9.07;;;4.60;99.90;;;;;;5014090;28;21558;-59
2022/01/15 09:14:12;;;;;;;13.00;8.90;;;4.60;99.90;;;;;;5012844;28;20489;-59
2022/01/15 09:16:38;;;;;;;12.75;9.18;;;4.70;99.90;;;;;;5009805;28;20144;-60
2022/01/15 09:19:05;;;;;;;15.30;10.32;;;4.70;99.90;;;;;;5008308;28;20060;-59
2022/01/15 09:21:32;;;;;;;14.27;10.90;;;4.70;99.90;;;;;;5010345;28;20620;-59
2022/01/15 09:23:59;;;;;;;13.63;9.05;;;4.70;99.90;;;;;;5008481;28;20489;-60
2022/01/15 09:31:57;;;;;;;12.48;8.80;;;4.80;99.90;;;;;;5017952;28;20080;-60
2022/01/15 09:34:25;;;;;;;12.63;9.52;;;4.80;99.90;;;;;;5016391;28;20054;-60
2022/01/15 09:36:52;;;;;;;14.43;9.95;;;4.90;99.90;;;;;;5017580;28;21029;-60
2022/01/15 09:39:20;;;;;;;14.43;9.57;;;5.00;99.90;;;;;;5013943;28;20469;-60
2022/01/15 09:41:48;;;;;;;12.43;9.65;;;5.00;99.90;;;;;;5009395;28;20068;-60
2022/01/15 09:44:15;;;;;;;14.82;9.52;;;5.00;99.90;;;;;;5021140;28;20128;-60
2022/01/15 09:46:42;;;;;;;14.75;10.25;;;5.10;99.90;;;;;;5015322;28;20136;-59
2022/01/15 09:49:10;;;;;;;15.35;10.00;;;5.20;99.90;;;;;;5002155;28;20049;-60
2022/01/15 09:51:36;;;;;;;15.68;11.15;;;5.20;99.90;;;;;;5009434;28;20093;-60
2022/01/15 09:54:03;;;;;;;14.43;10.07;;;5.20;99.90;;;;;;5013009;28;20053;-60
2022/01/15 09:56:30;;;;;;;15.55;11.20;;;5.30;99.90;;;;;;5006812;28;20164;-58
2022/01/15 09:58:58;;;;;;;15.02;11.23;;;5.30;99.90;;;;;;5006123;28;20482;-59
2022/01/15 10:01:28;;;;;;;17.92;12.02;;;5.40;99.90;;;;;;5034266;28;20463;-58
2022/01/15 10:03:56;;;;;;;15.02;11.45;;;5.40;99.90;;;;;;5018811;28;20052;-59
2022/01/15 10:06:23;;;;;;;14.02;11.27;;;5.50;99.90;;;;;;5028594;28;20171;-58
2022/01/15 10:09:04;;;;;;;15.35;11.43;;;5.60;99.90;;;;;;5009568;28;20047;-59
2022/01/15 10:11:48;;;;;;;14.57;10.77;;;5.60;99.90;;;;;;5018667;28;20053;-59
2022/01/15 10:14:35;;;;;;;14.75;11.10;;;5.60;99.90;;;;;;5009064;28;20185;-59
2022/01/15 10:17:18;;;;;;;13.32;10.30;;;5.60;99.90;;;;;;5019002;28;20372;-59
2022/01/15 10:19:45;;;;;;;15.38;11.57;;;5.70;99.90;;;;;;5019341;28;20153;-58
2022/01/15 10:22:14;;;;;;;16.83;12.32;;;5.70;99.90;;;;;;5019984;28;20152;-58
2022/01/15 10:24:42;;;;;;;14.48;11.70;;;5.70;99.90;;;;;;5019439;28;20136;-58
2022/01/15 10:27:34;;;;;;;14.93;11.38;;;5.80;99.90;;;;;;5019139;28;20084;-59
2022/01/15 10:30:04;;;;;;;13.73;11.40;;;5.90;99.90;;;;;;5019674;28;20107;-59
2022/01/15 10:32:33;;;;;;;14.65;11.75;;;6.00;99.90;;;;;;5019451;28;20218;-59
2022/01/15 10:35:00;;;;;;;15.90;11.77;;;6.10;99.90;;;;;;5018961;28;20045;-59
2022/01/15 10:37:34;;;;;;;14.90;11.52;;;6.20;99.90;;;;;;5018994;28;20140;-59
2022/01/15 10:40:07;;;;;;;16.80;11.48;;;6.20;99.90;;;;;;5018847;28;20137;-59
2022/01/15 10:42:34;;;;;;;16.50;11.65;;;6.30;99.90;;;;;;5014683;28;20936;-59
2022/01/15 10:45:11;;;;;;;14.68;11.23;;;6.30;99.90;;;;;;5009461;28;20045;-58
2022/01/15 10:47:43;;;;;;;16.98;12.23;;;6.30;99.90;;;;;;5015865;28;20056;-59
2022/01/15 10:50:25;;;;;;;16.77;12.18;;;6.30;99.90;;;;;;5018378;28;20046;-59
2022/01/15 10:52:52;;;;;;;16.25;12.75;;;6.40;99.90;;;;;;5011773;28;20656;-59
2022/01/15 10:55:24;;;;;;;14.57;11.68;;;6.40;99.90;;;;;;5018106;28;20160;-59
2022/01/15 10:57:58;;;;;;;16.48;11.80;;;6.40;99.90;;;;;;5017835;28;20124;-59
2022/01/15 11:00:25;;;;;;;;;;;6.40;99.90;;;;;;5005785;28;20788;-59
2022/01/15 11:02:59;;;;;;;15.02;11.23;;;6.40;99.90;;;;;;5010787;28;20512;-59
2022/01/15 11:05:29;;;;;;;14.68;11.13;;;6.40;99.90;;;;;;5008753;28;20050;-58
2022/01/15 11:08:04;;;;;;;14.70;11.25;;;6.40;99.90;;;;;;5008367;28;20200;-59
2022/01/15 11:10:41;;;;;;;15.00;12.57;;;6.40;99.90;;;;;;5008948;28;20049;-59
2022/01/15 11:13:11;;;;;;;14.35;11.27;;;6.50;99.90;;;;;;5007445;28;20145;-59
2022/01/15 11:16:05;;;;;;;14.82;11.60;;;6.50;99.90;;;;;;5015377;28;20607;-58
2022/01/15 11:18:34;;;;;;;16.05;12.68;;;6.50;99.90;;;;;;5008295;28;20045;-59
2022/01/15 11:21:02;;;;;;;15.93;11.98;;;6.50;99.90;;;;;;5006548;28;20041;-59
2022/01/15 11:23:30;;;;;;;14.88;12.27;;;6.50;99.90;;;;;;5009494;28;20799;-58
2022/01/15 11:25:59;;;;;;;15.20;12.07;;;6.60;99.90;;;;;;5011783;28;20138;-59
2022/01/15 11:28:27;;;;;;;16.63;11.95;;;6.70;99.90;;;;;;5009070;28;20165;-59
2022/01/15 11:30:57;;;;;;;16.45;13.00;;;6.80;99.90;;;;;;5010317;28;20452;-60
2022/01/15 11:33:32;;;;;;;17.73;13.50;;;6.90;99.90;;;;;;5007579;28;20129;-59
2022/01/15 11:35:59;;;;;;;15.35;12.57;;;6.90;99.90;;;;;;5004972;28;20157;-59
2022/01/15 11:38:45;;;;;;;16.40;13.63;;;7.00;99.90;;;;;;5006210;28;20422;-59
2022/01/15 11:41:27;;;;;;;16.55;12.60;;;7.10;99.90;;;;;;5009104;28;20054;-59
2022/01/15 11:43:57;;;;;;;16.63;13.20;;;7.10;99.90;;;;;;5010127;28;20350;-60
2022/01/15 11:46:46;;;;;;;18.75;13.93;;;7.10;99.90;;;;;;5008286;28;20053;-59
2022/01/15 11:49:35;;;;;;;16.33;12.95;;;7.20;99.90;;;;;;5008174;28;20165;-59
2022/01/15 11:52:11;;;;;;;19.02;14.95;;;7.20;99.90;;;;;;5011975;28;20489;-59
2022/01/15 11:55:05;;;;;;;18.45;14.50;;;7.20;99.90;;;;;;5007744;28;20484;-56
2022/01/15 11:57:36;;;;;;;18.73;14.32;;;7.20;99.90;;;;;;5009263;28;20133;-58
2022/01/15 12:00:16;;;;;;;18.88;14.98;;;7.20;99.90;;;;;;5009458;28;20053;-58
2022/01/15 12:03:04;;;;;;;22.30;18.17;;;7.20;99.90;;;;;;5009392;28;20049;-58
2022/01/15 12:05:33;;;;;;;21.50;17.70;;;7.00;99.90;;;;;;5006938;28;20548;-58
2022/01/15 12:08:02;;;;;;;21.55;18.08;;;6.90;99.90;;;;;;5008180;28;20149;-58
2022/01/15 12:10:45;;;;;;;22.58;18.02;;;6.90;99.90;;;;;;5004073;28;20100;-59
2022/01/15 12:13:15;;;;;;;22.85;19.33;;;6.80;99.90;;;;;;5001147;28;20519;-59
2022/01/15 12:15:42;;;;;;;22.17;18.60;;;6.70;99.90;;;;;;5017374;28;20049;-59
2022/01/15 12:18:19;;;;;;;21.88;18.85;;;6.70;99.90;;;;;;5019273;28;20170;-58
2022/01/15 12:20:46;;;;;;;20.73;18.02;;;6.70;99.90;;;;;;5014371;28;20076;-59
2022/01/15 12:23:19;;;;;;;23.38;20.63;;;6.70;99.90;;;;;;5003848;28;20046;-59
2022/01/15 12:25:47;;;;;;;24.70;21.05;;;6.50;99.90;;;;;;5017577;28;20099;-60
2022/01/15 12:28:14;;;;;;;24.83;20.85;;;6.40;99.90;;;;;;5011411;28;20137;-60
2022/01/15 12:30:46;;;;;;;24.15;19.75;;;6.40;99.90;;;;;;5015921;28;20103;-60
2022/01/15 12:33:15;;;;;;;19.88;17.75;;;6.40;99.90;;;;;;5008084;28;20053;-61
2022/01/15 12:35:57;;;;;;;19.75;17.35;;;6.40;99.90;;;;;;5020905;28;20111;-60
2022/01/15 12:38:28;;;;;;;19.65;17.30;;;6.50;99.90;;;;;;5018061;28;20052;-60
2022/01/15 12:41:02;;;;;;;19.30;16.02;;;6.50;99.90;;;;;;5014909;28;20053;-60
2022/01/15 12:43:31;;;;;;;20.75;17.17;;;6.60;99.90;;;;;;5017296;28;20061;-60
2022/01/15 12:46:08;;;;;;;23.38;18.33;;;6.40;99.90;;;;;;5022593;28;20650;-60
2022/01/15 12:48:39;;;;;;;21.92;18.30;;;6.40;99.90;;;;;;5017656;28;20085;-59
2022/01/15 12:51:08;;;;;;;21.20;17.85;;;6.30;99.90;;;;;;5002855;28;20098;-60
2022/01/15 12:53:36;;;;;;;21.88;18.27;;;6.40;99.90;;;;;;5004443;28;20146;-60
2022/01/15 12:56:11;;;;;;;19.27;16.88;;;6.40;99.90;;;;;;5029172;28;20554;-59
2022/01/15 12:58:39;;;;;;;18.52;16.50;;;6.40;99.90;;;;;;5022712;28;20549;-59
2022/01/15 13:01:08;;;;;;;21.23;17.75;;;6.40;99.90;;;;;;5039939;28;20044;-60
2022/01/15 13:03:40;;;;;;;18.05;16.17;;;6.40;99.90;;;;;;5030502;28;20170;-59
2022/01/15 13:06:07;;;;;;;17.98;16.08;;;6.40;99.90;;;;;;5021942;28;20137;-60
2022/01/15 13:08:37;;;;;;;19.42;16.83;;;6.40;99.90;;;;;;5020174;28;20132;-59
2022/01/15 13:11:18;;;;;;;17.83;15.75;;;6.40;99.90;;;;;;5018029;28;20667;-60
2022/01/15 13:13:52;;;;;;;19.63;16.17;;;6.50;99.90;;;;;;5007428;28;20054;-60
2022/01/15 13:16:26;;;;;;;17.73;14.65;;;6.50;99.90;;;;;;5016320;28;20413;-59
2022/01/15 13:18:54;;;;;;;17.88;15.20;;;6.50;99.90;;;;;;5022005;28;20425;-59
2022/01/15 13:21:24;;;;;;;18.90;15.60;;;6.40;99.90;;;;;;5016239;28;20386;-59
2022/01/15 13:23:57;;;;;;;18.98;15.43;;;6.40;99.90;;;;;;5011648;28;20083;-60